createdAt,value
2022-12-11T13:51:01.368Z,3.72
2022-12-11T13:53:27.962Z,2.88
2022-12-11T13:56:01.350Z,3.15
2022-12-11T13:58:28.236Z,2.63
2022-12-11T14:01:11.251Z,2.58
2022-12-11T14:03:43.453Z,2.50
2022-12-11T14:06:18.035Z,2.13
2022-12-11T14:08:46.212Z,1.90
2022-12-11T14:11:21.765Z,1.65
2022-12-11T14:13:48.588Z,2.00
2022-12-11T14:16:20.514Z,2.40
2022-12-11T14:18:48.692Z,2.90
2022-12-11T14:21:19.791Z,2.63
2022-12-11T14:23:51.468Z,3.15
2022-12-11T14:26:19.778Z,3.15
2022-12-11T14:28:46.400Z,2.90
2022-12-11T14:31:14.995Z,3.25
2022-12-11T14:33:43.832Z,3.53
2022-12-11T14:36:10.669Z,3.40
2022-12-11T14:38:45.077Z,3.42
2022-12-11T14:41:23.963Z,3.35
2022-12-11T14:43:52.966Z,3.83
2022-12-11T14:46:26.054Z,3.42
2022-12-11T14:49:00.368Z,3.30
2022-12-11T14:51:29.588Z,3.67
2022-12-11T14:53:56.167Z,3.60
2022-12-11T14:56:27.455Z,3.67
2022-12-11T14:59:04.909Z,3.83
2022-12-11T15:01:32.873Z,3.60
2022-12-11T15:04:14.385Z,3.72
2022-12-11T15:06:44.834Z,3.60
2022-12-11T15:09:19.124Z,3.65
2022-12-11T15:11:47.091Z,3.60
2022-12-11T15:14:13.855Z,3.33
2022-12-11T15:16:41.646Z,3.90
2022-12-11T15:19:16.408Z,3.63
2022-12-11T15:21:43.311Z,3.55
2022-12-11T15:24:22.414Z,3.78
2022-12-11T15:26:48.849Z,3.78
2022-12-11T15:29:27.503Z,4.00
2022-12-11T15:32:20.284Z,3.67
2022-12-11T15:34:48.339Z,4.22
2022-12-11T15:37:17.617Z,4.00
2022-12-11T15:39:43.965Z,3.40
2022-12-11T15:42:13.493Z,3.50
2022-12-11T15:44:40.602Z,3.83
2022-12-11T15:47:15.741Z,3.40
2022-12-11T15:49:42.085Z,3.50
2022-12-11T15:52:08.692Z,3.67
2022-12-11T15:54:35.050Z,3.63
2022-12-11T15:57:03.568Z,3.85
2022-12-11T15:59:30.426Z,3.70
2022-12-11T16:01:56.928Z,4.10
2022-12-11T16:04:23.302Z,3.63
2022-12-11T16:06:50.471Z,3.50
2022-12-11T16:09:16.811Z,4.13
2022-12-11T16:11:43.227Z,3.88
2022-12-11T16:14:09.578Z,3.78
2022-12-11T16:16:35.918Z,3.83
2022-12-11T16:19:02.264Z,3.75
2022-12-11T16:21:28.620Z,3.78
2022-12-11T16:23:54.977Z,3.83
2022-12-11T16:26:21.332Z,3.60
2022-12-11T16:28:47.843Z,3.95
2022-12-11T16:31:15.092Z,4.10
2022-12-11T16:33:41.557Z,3.85
2022-12-11T16:36:16.057Z,4.03
2022-12-11T16:38:51.425Z,5.03
2022-12-11T16:41:19.768Z,5.65
2022-12-11T16:43:46.181Z,6.05
2022-12-11T16:46:12.633Z,6.03
2022-12-11T16:48:39.026Z,6.32
2022-12-11T16:51:05.958Z,6.55
2022-12-11T16:53:32.343Z,6.93
2022-12-11T16:55:58.675Z,7.20
2022-12-11T16:58:25.024Z,7.32
2022-12-11T17:00:51.438Z,7.57
2022-12-11T17:03:19.030Z,6.93
2022-12-11T17:05:45.440Z,6.88
2022-12-11T17:08:12.297Z,6.93
2022-12-11T17:10:39.521Z,6.93
2022-12-11T17:13:05.822Z,7.03
2022-12-11T17:15:32.469Z,7.40
2022-12-11T17:17:58.893Z,6.80
2022-12-11T17:20:25.563Z,6.70
2022-12-11T17:22:51.926Z,7.03
2022-12-11T17:25:22.292Z,7.03
2022-12-11T17:27:49.317Z,6.40
2022-12-11T17:30:15.687Z,6.85
2022-12-11T17:32:46.681Z,8.77
2022-12-11T17:35:13.696Z,8.27
2022-12-11T17:37:40.463Z,8.90
2022-12-11T17:40:07.084Z,9.50
2022-12-11T17:42:33.631Z,15.77
2022-12-11T17:45:00.000Z,18.08
2022-12-11T17:47:26.571Z,17.60
2022-12-11T17:49:52.930Z,16.25
2022-12-11T17:52:19.519Z,15.90
2022-12-11T17:54:45.897Z,14.98
2022-12-11T17:57:12.214Z,13.55
2022-12-11T17:59:38.633Z,13.98
2022-12-11T18:02:05.018Z,12.95
2022-12-11T18:04:31.408Z,12.05
2022-12-11T18:06:57.713Z,12.35
2022-12-11T18:09:24.115Z,12.18
2022-12-11T18:11:51.179Z,10.95
2022-12-11T18:14:17.868Z,11.23
2022-12-11T18:16:44.254Z,10.57
2022-12-11T18:19:10.618Z,10.32
2022-12-11T18:21:40.349Z,9.57
2022-12-11T18:24:06.962Z,8.80
2022-12-11T18:26:33.306Z,9.65
2022-12-11T18:28:59.659Z,9.32
2022-12-11T18:31:26.070Z,8.63
2022-12-11T18:33:52.610Z,8.50
2022-12-11T18:36:20.257Z,8.70
2022-12-11T18:38:47.843Z,8.40
2022-12-11T18:43:40.723Z,7.53
2022-12-11T18:46:08.465Z,8.27
2022-12-11T18:48:34.974Z,7.63
2022-12-11T18:51:01.358Z,7.35
2022-12-11T18:53:27.950Z,7.35
2022-12-11T18:56:00.086Z,7.68
2022-12-11T18:58:26.864Z,6.15
2022-12-11T19:00:53.327Z,6.25
2022-12-11T19:03:19.739Z,6.38
2022-12-11T19:05:46.083Z,6.47
2022-12-11T19:08:13.793Z,6.18
2022-12-11T19:10:44.500Z,6.75
2022-12-11T19:13:11.292Z,6.68
2022-12-11T19:15:38.983Z,7.07
2022-12-11T19:18:05.579Z,5.97
2022-12-11T19:20:48.754Z,6.00
2022-12-11T19:23:15.758Z,5.93
2022-12-11T19:25:43.149Z,6.28
2022-12-11T19:28:09.963Z,5.80
2022-12-11T19:30:36.823Z,5.65
2022-12-11T19:33:03.176Z,5.40
2022-12-11T19:35:29.555Z,6.47
2022-12-11T19:37:55.913Z,5.32
2022-12-11T19:40:26.103Z,5.28
2022-12-11T19:42:53.117Z,5.55
2022-12-11T19:45:19.713Z,4.63
2022-12-11T19:47:46.134Z,5.20
2022-12-11T19:50:12.505Z,5.00
2022-12-11T19:52:44.434Z,5.15
2022-12-11T19:57:41.232Z,4.30
2022-12-11T20:00:08.168Z,4.65
2022-12-11T20:02:38.621Z,3.95
2022-12-11T20:05:05.319Z,3.92
2022-12-11T20:07:31.972Z,3.75
2022-12-11T20:10:00.070Z,3.70
2022-12-11T20:12:26.441Z,3.30
2022-12-11T20:14:52.908Z,3.60
2022-12-11T20:17:19.337Z,3.40
2022-12-11T20:19:45.977Z,3.13
2022-12-11T20:22:12.386Z,3.55
2022-12-11T20:24:38.782Z,2.85
2022-12-11T20:27:05.120Z,2.85
2022-12-11T20:29:31.428Z,3.15
2022-12-11T20:31:59.815Z,3.17
2022-12-11T20:34:26.642Z,2.65
2022-12-11T20:36:53.158Z,2.90
2022-12-11T20:39:19.613Z,2.50
2022-12-11T20:41:45.976Z,2.63
2022-12-11T20:44:12.343Z,2.45
2022-12-11T20:46:38.762Z,2.70
2022-12-11T20:49:09.788Z,18.48
2022-12-11T20:51:36.208Z,97.68
2022-12-11T20:54:02.548Z,63.58
2022-12-11T20:56:29.984Z,47.85
2022-12-11T20:58:56.555Z,37.15
2022-12-11T21:01:25.234Z,28.40
2022-12-11T21:03:53.194Z,22.80
2022-12-11T21:06:28.363Z,17.63
2022-12-11T21:08:54.749Z,15.05
2022-12-11T21:11:21.462Z,13.27
2022-12-11T21:13:49.841Z,11.85
2022-12-11T21:16:18.041Z,10.80
2022-12-11T21:18:46.487Z,10.30
2022-12-11T21:21:13.005Z,9.15
2022-12-11T21:23:39.401Z,8.88
2022-12-11T21:26:06.140Z,8.30
2022-12-11T21:28:35.437Z,7.95
2022-12-11T21:31:04.100Z,7.70
2022-12-11T21:33:31.320Z,7.30
2022-12-11T21:35:58.342Z,7.25
2022-12-11T21:38:25.034Z,6.80
2022-12-11T21:40:51.972Z,6.85
2022-12-11T21:43:18.646Z,6.40
2022-12-11T21:46:01.833Z,6.68
2022-12-11T21:48:28.941Z,5.95
2022-12-11T21:50:55.354Z,6.22
2022-12-11T21:53:21.792Z,6.22
2022-12-11T21:55:48.228Z,6.28
2022-12-11T21:58:15.665Z,5.60
2022-12-11T22:00:42.250Z,5.35
2022-12-11T22:03:08.838Z,5.63
2022-12-11T22:05:35.355Z,5.38
2022-12-11T22:08:01.844Z,5.38
2022-12-11T22:10:28.421Z,5.22
2022-12-11T22:12:54.965Z,5.22
2022-12-11T22:15:21.304Z,4.97
2022-12-11T22:17:47.733Z,4.75
2022-12-11T22:20:14.645Z,4.90
2022-12-11T22:22:41.149Z,4.90
2022-12-11T22:25:07.841Z,4.82
2022-12-11T22:27:34.259Z,4.82
2022-12-11T22:30:00.674Z,4.40
2022-12-11T22:32:27.721Z,4.50
2022-12-11T22:34:56.224Z,4.60
2022-12-11T22:37:22.709Z,4.32
2022-12-11T22:39:49.145Z,4.50
2022-12-11T22:42:15.726Z,4.07
2022-12-11T22:44:42.815Z,4.10
2022-12-11T22:47:09.194Z,4.18
2022-12-11T22:49:35.710Z,3.88
2022-12-11T22:52:02.057Z,5.07
2022-12-11T22:54:28.408Z,3.78
2022-12-11T22:56:55.307Z,14.77
2022-12-11T22:59:22.596Z,15.38
2022-12-11T23:01:49.019Z,6.53
2022-12-11T23:04:15.388Z,4.78
2022-12-11T23:06:41.744Z,4.63
2022-12-11T23:09:08.203Z,4.55
2022-12-11T23:11:36.898Z,3.90
2022-12-11T23:14:04.069Z,4.20
2022-12-11T23:16:30.454Z,4.00
2022-12-11T23:18:57.502Z,3.88
2022-12-11T23:21:24.987Z,3.63
2022-12-11T23:23:51.314Z,3.50
2022-12-11T23:26:18.688Z,3.25
2022-12-11T23:28:45.581Z,3.22
2022-12-11T23:31:12.245Z,3.40
2022-12-11T23:33:38.741Z,3.40
2022-12-11T23:36:05.356Z,3.25
2022-12-11T23:38:31.977Z,14.00
2022-12-11T23:41:00.950Z,15.80
2022-12-11T23:43:27.575Z,16.08
2022-12-11T23:45:54.576Z,6.50
2022-12-11T23:48:21.047Z,5.45
2022-12-11T23:50:48.105Z,4.57
2022-12-11T23:53:14.857Z,4.00
2022-12-11T23:55:42.326Z,3.20
2022-12-11T23:58:08.964Z,3.55
